createdAt,value
2023-06-11T00:00:39.369Z,74.45
2023-06-11T00:03:48.470Z,74.60
2023-06-11T00:06:53.550Z,75.08
2023-06-11T00:09:57.527Z,74.27
2023-06-11T00:13:01.570Z,74.86
2023-06-11T00:16:05.802Z,74.08
2023-06-11T00:19:11.347Z,74.81
2023-06-11T00:22:16.400Z,74.50
2023-06-11T00:25:20.646Z,74.86
2023-06-11T00:28:24.729Z,74.92
2023-06-11T00:31:28.818Z,75.17
2023-06-11T00:34:34.468Z,74.41
2023-06-11T00:37:38.823Z,74.48
2023-06-11T00:40:43.889Z,73.50
2023-06-11T00:43:50.406Z,74.01
2023-06-11T00:46:55.608Z,74.62
2023-06-11T00:50:01.429Z,73.96
2023-06-11T00:53:05.639Z,73.88
2023-06-11T00:56:13.040Z,74.03
2023-06-11T00:59:21.210Z,74.58
2023-06-11T01:02:29.658Z,75.95
2023-06-11T01:05:44.405Z,74.05
2023-06-11T01:08:54.555Z,74.60
2023-06-11T01:12:03.994Z,74.83
2023-06-11T01:15:14.664Z,75.55
2023-06-11T01:18:20.697Z,74.94
2023-06-11T01:21:31.886Z,75.90
2023-06-11T01:24:54.895Z,75.30
2023-06-11T01:28:07.396Z,75.36
2023-06-11T01:31:16.298Z,75.49
2023-06-11T01:34:20.685Z,74.71
2023-06-11T01:37:24.856Z,74.06
2023-06-11T01:40:29.846Z,73.84
2023-06-11T01:43:37.706Z,74.34
2023-06-11T01:46:42.023Z,74.43
2023-06-11T01:49:46.295Z,74.88
2023-06-11T01:52:51.454Z,74.73
2023-06-11T01:55:58.217Z,74.75
2023-06-11T01:59:04.552Z,74.91
2023-06-11T02:02:11.126Z,74.38
2023-06-11T02:05:15.427Z,74.95
2023-06-11T02:08:19.516Z,75.40
2023-06-11T02:11:23.515Z,74.56
2023-06-11T02:14:29.260Z,75.29
2023-06-11T02:17:33.253Z,76.32
2023-06-11T02:20:37.649Z,76.16
2023-06-11T02:23:41.813Z,76.89
2023-06-11T02:26:45.963Z,76.08
2023-06-11T02:29:51.848Z,74.92
2023-06-11T02:32:56.366Z,75.54
2023-06-11T02:36:00.524Z,75.27
2023-06-11T02:39:04.835Z,74.23
2023-06-11T02:42:09.395Z,74.56
2023-06-11T02:45:15.258Z,73.84
2023-06-11T02:48:19.306Z,73.79
2023-06-11T02:51:23.466Z,73.54
2023-06-11T02:54:27.470Z,73.41
2023-06-11T02:57:32.345Z,73.64
2023-06-11T03:00:38.039Z,72.94
2023-06-11T03:03:42.362Z,73.19
2023-06-11T03:06:48.211Z,73.18
2023-06-11T03:09:52.516Z,72.70
2023-06-11T03:12:56.698Z,72.31
2023-06-11T03:16:02.629Z,73.71
2023-06-11T03:19:06.897Z,73.38
2023-06-11T03:22:11.404Z,72.07
2023-06-11T03:25:15.827Z,72.17
2023-06-11T03:28:20.366Z,72.43
2023-06-11T03:31:26.130Z,72.21
2023-06-11T03:34:30.536Z,72.91
2023-06-11T03:37:37.027Z,71.89
2023-06-11T03:40:41.270Z,72.93
2023-06-11T03:43:45.962Z,71.99
2023-06-11T03:46:52.578Z,72.37
2023-06-11T03:49:56.676Z,73.31
2023-06-11T03:53:00.958Z,72.92
2023-06-11T03:56:05.942Z,72.20
2023-06-11T03:59:10.006Z,71.09
2023-06-11T04:02:15.911Z,70.60
2023-06-11T04:05:20.763Z,70.78
2023-06-11T04:08:31.382Z,70.43
2023-06-11T04:11:35.844Z,71.15
2023-06-11T04:14:40.343Z,70.38
2023-06-11T04:17:46.490Z,70.40
2023-06-11T04:20:50.598Z,68.97
2023-06-11T04:23:56.845Z,68.30
2023-06-11T04:27:01.271Z,69.38
2023-06-11T04:30:06.128Z,68.97
2023-06-11T04:33:11.797Z,68.87
2023-06-11T04:36:16.877Z,69.20
2023-06-11T04:39:21.524Z,69.87
2023-06-11T04:42:26.166Z,70.67
2023-06-11T04:45:31.893Z,70.11
2023-06-11T04:48:39.475Z,69.67
2023-06-11T04:51:43.879Z,69.02
2023-06-11T04:54:48.106Z,68.84
2023-06-11T04:57:53.144Z,68.83
2023-06-11T05:00:58.926Z,68.33
2023-06-11T05:04:04.673Z,68.60
2023-06-11T05:07:09.167Z,68.52
2023-06-11T05:10:15.383Z,69.40
2023-06-11T05:13:23.773Z,68.85
2023-06-11T05:16:27.994Z,68.17
2023-06-11T05:19:34.731Z,67.26
2023-06-11T05:22:39.070Z,67.36
2023-06-11T05:25:48.565Z,66.72
2023-06-11T05:28:55.530Z,66.12
2023-06-11T05:32:01.898Z,65.49
2023-06-11T05:35:09.858Z,67.25
2023-06-11T05:38:15.168Z,66.44
2023-06-11T05:41:20.388Z,64.81
2023-06-11T05:44:24.786Z,64.61
2023-06-11T05:47:29.128Z,63.46
2023-06-11T05:50:34.993Z,62.02
2023-06-11T05:53:39.986Z,61.38
2023-06-11T05:56:44.851Z,61.18
2023-06-11T05:59:49.993Z,60.53
2023-06-11T06:02:55.752Z,61.15
2023-06-11T06:06:06.735Z,60.76
2023-06-11T06:09:10.985Z,60.59
2023-06-11T06:12:15.050Z,60.56
2023-06-11T06:15:19.605Z,59.00
2023-06-11T06:18:24.154Z,58.31
2023-06-11T06:21:29.905Z,58.54
2023-06-11T06:24:34.457Z,57.95
2023-06-11T06:27:39.074Z,57.51
2023-06-11T06:30:46.237Z,56.75
2023-06-11T06:33:50.987Z,56.10
2023-06-11T06:36:57.778Z,56.31
2023-06-11T06:40:02.165Z,54.85
2023-06-11T06:43:06.533Z,54.78
2023-06-11T06:46:12.290Z,54.65
2023-06-11T06:49:17.351Z,54.74
2023-06-11T06:52:23.938Z,55.00
2023-06-11T06:55:28.300Z,54.63
2023-06-11T06:58:39.553Z,53.25
2023-06-11T07:01:44.073Z,52.88
2023-06-11T07:04:49.968Z,52.58
2023-06-11T07:07:56.830Z,52.20
2023-06-11T07:11:01.789Z,52.18
2023-06-11T07:14:24.199Z,52.11
2023-06-11T07:17:29.175Z,51.71
2023-06-11T07:20:34.458Z,52.21
2023-06-11T07:23:40.301Z,50.88
2023-06-11T07:26:45.421Z,49.72
2023-06-11T07:29:50.542Z,49.33
2023-06-11T07:32:55.878Z,49.05
2023-06-11T07:36:01.037Z,48.93
2023-06-11T07:39:07.182Z,47.86
2023-06-11T07:42:11.787Z,48.25
2023-06-11T07:45:16.875Z,47.18
2023-06-11T07:48:21.173Z,47.85
2023-06-11T07:51:27.117Z,46.13
2023-06-11T07:54:39.147Z,45.53
2023-06-11T07:57:43.496Z,45.97
2023-06-11T08:00:47.646Z,44.29
2023-06-11T08:03:51.993Z,43.70
2023-06-11T08:06:56.252Z,43.84
2023-06-11T08:10:01.846Z,44.43
2023-06-11T08:13:06.233Z,42.58
2023-06-11T08:16:10.531Z,43.47
2023-06-11T08:19:14.787Z,42.71
2023-06-11T08:22:18.950Z,41.88
2023-06-11T08:25:24.484Z,41.74
2023-06-11T08:28:29.645Z,42.05
2023-06-11T08:31:34.107Z,41.23
2023-06-11T08:34:38.367Z,40.77
2023-06-11T08:37:42.604Z,41.32
2023-06-11T08:40:48.335Z,39.92
2023-06-11T08:43:52.764Z,40.59
2023-06-11T08:46:58.707Z,39.52
2023-06-11T08:50:04.410Z,39.94
2023-06-11T08:53:09.622Z,41.56
2023-06-11T08:56:15.412Z,38.98
2023-06-11T08:59:20.538Z,38.24
2023-06-11T09:02:27.327Z,37.64
2023-06-11T09:05:31.580Z,36.85
2023-06-11T09:08:35.846Z,36.10
2023-06-11T09:11:41.702Z,35.69
2023-06-11T09:14:54.331Z,35.86
2023-06-11T09:17:58.467Z,35.39
2023-06-11T09:21:02.879Z,35.65
2023-06-11T09:24:11.074Z,35.09
2023-06-11T09:27:17.532Z,34.33
2023-06-11T09:30:22.743Z,34.50
2023-06-11T09:33:27.540Z,34.16
2023-06-11T09:36:32.834Z,33.88
2023-06-11T09:39:37.215Z,33.73
2023-06-11T09:42:45.100Z,34.20
2023-06-11T09:45:54.194Z,34.00
2023-06-11T09:48:59.039Z,34.14
2023-06-11T09:52:04.922Z,34.19
2023-06-11T09:55:11.053Z,34.14
2023-06-11T09:58:18.346Z,32.84
2023-06-11T10:01:22.764Z,33.33
2023-06-11T10:04:27.016Z,32.48
2023-06-11T10:07:34.018Z,33.44
2023-06-11T10:10:43.579Z,32.81
2023-06-11T10:13:58.881Z,33.32
2023-06-11T10:17:04.109Z,33.26
2023-06-11T10:20:18.691Z,32.63
2023-06-11T10:23:23.268Z,32.73
2023-06-11T10:26:36.294Z,31.95
2023-06-11T10:29:43.787Z,32.05
2023-06-11T10:32:52.462Z,33.77
2023-06-11T10:36:03.879Z,33.95
2023-06-11T10:39:10.459Z,34.14
2023-06-11T10:42:14.793Z,33.97
2023-06-11T10:45:20.357Z,34.63
2023-06-11T10:48:30.530Z,33.73
2023-06-11T10:51:42.200Z,33.81
2023-06-11T10:54:51.621Z,33.51
2023-06-11T10:57:56.240Z,35.26
2023-06-11T11:01:02.193Z,36.35
2023-06-11T11:04:07.308Z,36.73
2023-06-11T11:07:11.696Z,37.32
2023-06-11T11:10:20.911Z,37.49
2023-06-11T11:13:25.223Z,38.09
2023-06-11T11:16:31.570Z,37.73
2023-06-11T11:19:37.403Z,40.33
2023-06-11T11:22:41.709Z,44.51
2023-06-11T11:25:45.997Z,47.21
2023-06-11T11:28:50.124Z,46.58
2023-06-11T11:31:56.102Z,46.20
2023-06-11T11:35:02.043Z,46.25
2023-06-11T11:38:06.228Z,45.98
2023-06-11T11:41:11.544Z,45.91
2023-06-11T11:44:17.397Z,46.34
2023-06-11T11:47:24.070Z,46.68
2023-06-11T11:50:31.654Z,46.07
2023-06-11T11:53:36.166Z,45.86
2023-06-11T11:56:41.114Z,44.93
2023-06-11T11:59:45.428Z,44.75
2023-06-11T12:02:51.126Z,44.58
2023-06-11T12:06:00.256Z,44.47
2023-06-11T12:09:04.552Z,45.37
2023-06-11T12:12:10.113Z,45.00
2023-06-11T12:15:14.522Z,45.07
2023-06-11T12:18:20.265Z,45.01
2023-06-11T12:21:24.799Z,44.29
2023-06-11T12:24:30.668Z,44.87
2023-06-11T12:27:34.993Z,44.77
2023-06-11T12:30:39.181Z,44.52
2023-06-11T12:33:44.767Z,44.58
2023-06-11T12:36:50.265Z,43.34
2023-06-11T12:39:54.645Z,42.52
2023-06-11T12:43:00.833Z,42.76
2023-06-11T12:46:05.262Z,42.30
2023-06-11T12:49:10.913Z,42.43
2023-06-11T12:52:15.321Z,41.88
2023-06-11T12:55:19.726Z,42.94
2023-06-11T12:58:24.576Z,42.93
2023-06-11T13:01:28.769Z,43.80
2023-06-11T13:04:34.567Z,45.33
2023-06-11T13:07:39.017Z,46.77
2023-06-11T13:10:43.340Z,46.71
2023-06-11T13:13:47.797Z,46.11
2023-06-11T13:16:53.100Z,46.19
2023-06-11T13:19:58.879Z,44.27
2023-06-11T13:23:02.987Z,44.12
2023-06-11T13:26:07.408Z,45.34
2023-06-11T13:29:11.612Z,45.41
2023-06-11T13:32:16.467Z,46.54
2023-06-11T13:35:22.229Z,45.59
2023-06-11T13:38:27.673Z,43.23
2023-06-11T13:41:31.919Z,43.99
2023-06-11T13:44:36.230Z,44.52
2023-06-11T13:47:40.417Z,45.02
2023-06-11T13:50:48.635Z,46.48
2023-06-11T13:53:52.674Z,45.29
2023-06-11T13:56:57.719Z,44.78
2023-06-11T14:00:02.338Z,44.49
2023-06-11T14:03:16.607Z,43.98
2023-06-11T14:06:22.994Z,43.74
2023-06-11T14:09:27.200Z,43.78
2023-06-11T14:12:31.320Z,43.70
2023-06-11T14:15:35.530Z,43.52
2023-06-11T14:18:39.744Z,44.36
2023-06-11T14:21:45.394Z,44.45
2023-06-11T14:24:49.539Z,44.63
2023-06-11T14:27:53.740Z,44.20
2023-06-11T14:30:57.869Z,44.33
2023-06-11T14:34:02.054Z,43.33
2023-06-11T14:37:08.441Z,42.18
2023-06-11T14:40:13.530Z,42.52
2023-06-11T14:43:18.054Z,42.38
2023-06-11T14:46:23.216Z,42.15
2023-06-11T14:49:27.381Z,41.78
2023-06-11T14:52:32.952Z,42.97
2023-06-11T14:55:37.061Z,43.44
2023-06-11T14:58:41.153Z,43.48
2023-06-11T15:01:45.735Z,44.34
2023-06-11T15:04:50.316Z,43.77
2023-06-11T15:07:55.988Z,43.70
2023-06-11T15:11:00.240Z,43.69
2023-06-11T15:14:05.191Z,44.34
2023-06-11T15:17:09.426Z,44.04
2023-06-11T15:20:14.769Z,44.16
2023-06-11T15:23:20.740Z,44.10
2023-06-11T15:26:24.898Z,44.96
2023-06-11T15:29:29.260Z,44.16
2023-06-11T15:32:33.512Z,44.35
2023-06-11T15:35:37.760Z,44.75
2023-06-11T15:38:43.389Z,45.36
2023-06-11T15:41:47.539Z,45.44
2023-06-11T15:44:51.849Z,45.11
2023-06-11T15:47:56.935Z,45.13
2023-06-11T15:51:02.240Z,45.16
2023-06-11T15:54:07.894Z,45.75
2023-06-11T15:57:13.225Z,45.85
2023-06-11T16:00:18.281Z,45.86
2023-06-11T16:03:22.621Z,46.43
2023-06-11T16:06:26.953Z,46.24
2023-06-11T16:09:32.672Z,46.69
2023-06-11T16:12:36.758Z,46.53
2023-06-11T16:15:41.626Z,46.65
2023-06-11T16:18:45.916Z,46.48
2023-06-11T16:21:50.234Z,46.56
2023-06-11T16:24:55.949Z,46.49
2023-06-11T16:28:00.173Z,47.21
2023-06-11T16:31:04.456Z,48.00
2023-06-11T16:34:09.037Z,48.54
2023-06-11T16:37:13.190Z,49.57
2023-06-11T16:40:18.888Z,49.90
2023-06-11T16:43:23.131Z,49.53
2023-06-11T16:46:27.299Z,49.63
2023-06-11T16:49:31.478Z,50.00
2023-06-11T16:52:37.009Z,50.30
2023-06-11T16:55:43.763Z,50.65
2023-06-11T16:58:48.003Z,51.21
2023-06-11T17:01:52.198Z,54.11
2023-06-11T17:04:56.416Z,55.31
2023-06-11T17:08:02.508Z,55.21
2023-06-11T17:11:09.661Z,54.70
2023-06-11T17:14:13.919Z,55.33
2023-06-11T17:17:17.994Z,56.38
2023-06-11T17:20:22.784Z,57.21
2023-06-11T17:23:27.663Z,56.75
2023-06-11T17:26:34.731Z,57.18
2023-06-11T17:29:38.915Z,57.54
2023-06-11T17:32:43.139Z,57.46
2023-06-11T17:35:47.324Z,57.29
2023-06-11T17:38:51.531Z,57.48
2023-06-11T17:41:57.285Z,59.21
2023-06-11T17:45:01.427Z,58.73
2023-06-11T17:48:06.006Z,59.53
2023-06-11T17:51:10.277Z,59.55
2023-06-11T17:54:14.468Z,60.42
2023-06-11T17:57:21.845Z,61.41
2023-06-11T18:00:26.657Z,61.33
2023-06-11T18:03:30.873Z,61.62
2023-06-11T18:06:35.578Z,63.82
2023-06-11T18:09:39.807Z,63.66
2023-06-11T18:12:46.001Z,64.29
2023-06-11T18:15:50.374Z,64.52
2023-06-11T18:18:55.858Z,64.66
2023-06-11T18:22:00.135Z,63.99
2023-06-11T18:25:04.402Z,64.88
2023-06-11T18:28:10.057Z,64.86
2023-06-11T18:31:14.712Z,64.74
2023-06-11T18:34:18.801Z,66.18
2023-06-11T18:37:22.997Z,65.77
2023-06-11T18:40:27.165Z,66.50
2023-06-11T18:43:32.868Z,68.15
2023-06-11T18:46:39.397Z,68.17
2023-06-11T18:49:44.635Z,68.51
2023-06-11T18:52:48.851Z,68.74
2023-06-11T18:55:53.116Z,68.36
2023-06-11T18:58:58.839Z,68.10
2023-06-11T19:02:03.029Z,68.48
2023-06-11T19:05:07.992Z,67.91
2023-06-11T19:08:12.233Z,68.58
2023-06-11T19:11:16.371Z,69.34
2023-06-11T19:14:22.161Z,69.71
2023-06-11T19:17:26.866Z,68.94
2023-06-11T19:20:32.376Z,68.82
2023-06-11T19:23:36.606Z,68.30
2023-06-11T19:26:40.889Z,68.50
2023-06-11T19:29:46.643Z,68.84
2023-06-11T19:32:50.855Z,69.25
2023-06-11T19:35:54.927Z,68.80
2023-06-11T19:38:59.321Z,68.29
2023-06-11T19:42:03.421Z,68.01
2023-06-11T19:45:11.218Z,68.94
2023-06-11T19:48:20.157Z,69.21
2023-06-11T19:51:24.452Z,69.57
2023-06-11T19:54:41.873Z,69.50
2023-06-11T19:57:53.499Z,70.00
2023-06-11T20:00:59.240Z,69.89
2023-06-11T20:04:03.405Z,69.30
2023-06-11T20:07:08.365Z,69.34
2023-06-11T20:10:13.297Z,70.27
2023-06-11T20:13:17.870Z,69.63
2023-06-11T20:16:23.728Z,69.65
2023-06-11T20:19:28.038Z,69.58
2023-06-11T20:22:32.924Z,69.60
2023-06-11T20:25:37.106Z,69.46
2023-06-11T20:28:41.395Z,68.98
2023-06-11T20:31:47.051Z,69.29
2023-06-11T20:34:51.350Z,68.88
2023-06-11T20:37:55.593Z,69.18
2023-06-11T20:41:00.134Z,69.70
2023-06-11T20:44:04.343Z,68.63
2023-06-11T20:47:10.768Z,69.28
2023-06-11T20:50:15.054Z,69.41
2023-06-11T20:53:32.562Z,70.38
2023-06-11T20:56:38.520Z,70.35
2023-06-11T20:59:44.543Z,69.71
2023-06-11T21:02:50.275Z,70.47
2023-06-11T21:05:55.908Z,71.47
2023-06-11T21:09:00.168Z,71.13
2023-06-11T21:12:04.389Z,70.12
2023-06-11T21:15:09.627Z,69.40
2023-06-11T21:18:15.433Z,69.39
2023-06-11T21:21:19.637Z,69.64
2023-06-11T21:24:23.995Z,70.29
2023-06-11T21:27:28.255Z,71.05
2023-06-11T21:30:32.536Z,69.85
2023-06-11T21:33:38.167Z,69.63
2023-06-11T21:36:42.443Z,70.15
2023-06-11T21:39:46.825Z,69.86
2023-06-11T21:42:50.935Z,70.87
2023-06-11T21:45:55.078Z,70.22
2023-06-11T21:49:00.719Z,70.65
2023-06-11T21:52:05.066Z,70.60
2023-06-11T21:55:09.858Z,70.62
2023-06-11T21:58:14.258Z,69.81
2023-06-11T22:01:24.428Z,70.46
2023-06-11T22:04:30.049Z,71.71
2023-06-11T22:07:35.281Z,72.13
2023-06-11T22:10:39.420Z,71.03
2023-06-11T22:13:43.511Z,72.12
2023-06-11T22:16:48.834Z,72.27
2023-06-11T22:19:54.561Z,71.99
2023-06-11T22:22:58.792Z,71.40
2023-06-11T22:26:05.660Z,71.54
2023-06-11T22:29:10.254Z,70.92
2023-06-11T22:32:14.382Z,70.62
2023-06-11T22:35:20.087Z,70.07
2023-06-11T22:38:24.363Z,69.01
2023-06-11T22:41:28.670Z,69.29
2023-06-11T22:44:32.751Z,68.48
2023-06-11T22:47:37.000Z,68.40
2023-06-11T22:50:42.615Z,68.57
2023-06-11T22:53:46.811Z,69.42
2023-06-11T22:56:51.224Z,68.58
2023-06-11T22:59:55.359Z,68.83
2023-06-11T23:02:59.644Z,68.60
2023-06-11T23:06:08.384Z,68.15
2023-06-11T23:09:12.492Z,68.29
2023-06-11T23:12:16.681Z,69.44
2023-06-11T23:15:21.258Z,69.32
2023-06-11T23:18:26.612Z,69.21
2023-06-11T23:21:32.463Z,68.98
2023-06-11T23:24:42.035Z,69.01
2023-06-11T23:27:46.683Z,68.82
2023-06-11T23:30:51.973Z,69.27
2023-06-11T23:33:56.094Z,71.95
2023-06-11T23:37:01.867Z,71.54
2023-06-11T23:40:08.624Z,70.50
2023-06-11T23:43:12.884Z,70.12
2023-06-11T23:46:17.115Z,69.46
2023-06-11T23:49:21.264Z,70.23
2023-06-11T23:52:27.021Z,71.50
2023-06-11T23:55:31.267Z,70.14
2023-06-11T23:58:35.526Z,70.27
